Terminal Aerodrome Forecast
Issued by NWS Sioux Falls, SD

Home | Current Version | Previous Version | Text Only | Print | Product List | Glossary On
Versions: 1 2 3 4 5 6 7 8 9 10 11 12 13 14 15 16 17
000
FTUS43 KFSD 281207 AAA
TAFHON
TAF AMD
KHON 281207Z 2812/2912 35005KT 3SM BR OVC008
      TEMPO 2812/2814 2SM -SHRA BR SCT008 OVC020
     FM281400 36005KT 3SM -SHRA BR OVC013
     FM281600 36005KT 5SM -SHRA BR SCT012 OVC022
     FM282000 35007KT P6SM OVC060
     FM282100 35007KT P6SM OVC060
     FM290300 28004KT P6SM SCT120=

USA.gov is the U.S. government's official web portal to all federal, state and local government web resources and services.